x

9075065 - Alpena, Mi (lpnm4) Weather Station

2:18am - Thu 18th Dec 2014 All times are CST. -6 hours from GMT.

  • Wind
    7mph, 9mph gusts
  • Air Temp 25°f
  • Sea Pressure 1020.2mb
  • 9075065 - Alpena, Mi
  • 9075065 - Alpena, Mi

More Historic Weather Station data

Upgrade to MSW Pro to gain access to the past 30 days of data for over 8000 Wavebouys and Weather Stations around the globe.

Join Pro

Comparision Forecast

View Surf forecast
   
Thu 12/18 2:18am 7 9 mph 1020.2mb 25f
2:12am 6 13 mph 1020.1mb 25f
2:00am 7 9 mph 1020.1mb 25f
1:54am 8 15 mph 1019.9mb 25f
1:48am 8 14 mph 1019.7mb 25f
1:42am 9 14 mph 1019.6mb 25f
1:36am 9 15 mph 1019.5mb 25f
1:30am 8 15 mph 1019.3mb 25f
1:24am 9 14 mph 1019.4mb 25f
1:18am 8 13 mph 1019.3mb 25f
1:12am 10 14 mph 1019.2mb 25f
1:06am 8 16 mph 1019.1mb 25f
1:00am 9 16 mph 1019mb 25f
12:54am 11 17 mph 1019mb 25f
12:48am 9 17 mph 1019mb 25f
12:42am 7 10 mph 1018.9mb 26f
12:36am 7 10 mph 1018.8mb 26f
12:30am 7 14 mph 1018.8mb 26f
12:24am 8 10 mph 1018.7mb 26f
12:18am 8 11 mph 1018.6mb 26f
12:12am 8 13 mph 1018.5mb 26f
12:06am 10 13 mph 1018.5mb 26f
12:00am 5 10 mph 1018.5mb 26f
Wed 12/17 11:54pm 7 13 mph 1018.4mb 26f
11:48pm 9 14 mph 1018.3mb 26f
11:42pm 9 13 mph 1018.2mb 26f
11:36pm 9 13 mph 1018.2mb 26f
11:30pm 8 15 mph 1018.3mb 26f
11:24pm 8 15 mph 1018.3mb 26f
11:18pm 8 13 mph 1018.3mb 26f
11:12pm 8 13 mph 1018.3mb 26f
11:06pm 8 11 mph 1018.3mb 26f
11:00pm 7 14 mph 1018.2mb 26f
10:54pm 11 16 mph 1018.2mb 26f
10:48pm 10 16 mph 1018.3mb 26f
10:42pm 10 15 mph 1018.2mb 26f
10:36pm 13 20 mph 1018.2mb 26f
10:30pm 11 16 mph 1018.1mb 26f
10:24pm 8 15 mph 1017.9mb 26f
10:18pm 9 15 mph 1017.9mb 26f
10:12pm 10 14 mph 1017.9mb 26f
10:06pm 10 17 mph 1017.8mb 26f
10:00pm 13 18 mph 1017.7mb 26f
9:54pm 9 17 mph 1017.6mb 26f
9:48pm 9 14 mph 1017.6mb 26f
9:42pm 11 18 mph 1017.6mb 26f
9:36pm 13 20 mph 1017.6mb 26f
9:30pm 9 20 mph 1017.6mb 27f
9:24pm 8 17 mph 1017.5mb 27f
9:18pm 9 14 mph 1017.4mb 27f
9:12pm 10 16 mph 1017.4mb 27f
9:06pm 13 20 mph 1017.2mb 27f
9:00pm 7 9 mph 1017.1mb 27f
8:54pm 7 11 mph 1017mb 27f
8:48pm 7 11 mph 1017mb 27f
8:42pm 7 10 mph 1017mb 27f
8:36pm 8 11 mph 1016.9mb 27f
8:24pm 8 13 mph 1016.8mb 27f
8:18pm 9 13 mph 1016.8mb 27f
8:12pm 8 11 mph 1016.7mb 27f
8:06pm 7 11 mph 1016.7mb 27f
8:00pm 8 10 mph 1016.6mb 27f
7:54pm 8 11 mph 1016.7mb 27f
7:48pm 10 13 mph 1016.6mb 27f
7:42pm 7 14 mph 1016.5mb 27f
7:36pm 9 13 mph 1016.5mb 27f
7:30pm 9 14 mph 1016.4mb 27f
7:24pm 7 13 mph 1016.4mb 27f
7:18pm 10 14 mph 1016.3mb 27f
7:12pm 9 15 mph 1016.2mb 27f
7:06pm 10 15 mph 1016.1mb 27f
7:00pm 11 14 mph 1016.1mb 27f
6:54pm 9 13 mph 1016.1mb 27f
6:48pm 10 15 mph 1016mb 27f
6:42pm 9 15 mph 1016mb 27f
6:36pm 8 11 mph 1016mb 27f
6:30pm 9 13 mph 1015.9mb 27f
6:24pm 7 13 mph 1015.9mb 27f
6:18pm 7 14 mph 1015.8mb 27f
6:00pm 9 15 mph 1015.6mb 27f
5:54pm 10 16 mph 1015.6mb 27f
5:48pm 11 15 mph 1015.5mb 27f
5:42pm 13 17 mph 1015.4mb 27f
5:36pm 10 17 mph 1015.3mb 27f
5:30pm 10 17 mph 1015.3mb 27f
5:24pm 16 20 mph 1015.2mb 27f
5:18pm 11 16 mph 1015.1mb 27f
5:12pm 14 21 mph 1015mb 27f
5:06pm 11 16 mph 1014.9mb 27f
5:00pm 11 17 mph 1014.8mb 27f
4:54pm 13 16 mph 1014.7mb 27f
4:48pm 11 16 mph 1014.7mb 27f
4:42pm 11 14 mph 1014.7mb 27f
4:36pm 10 16 mph 1014.6mb 28f
4:30pm 9 14 mph 1014.5mb 28f
4:24pm 10 17 mph 1014.4mb 28f
4:18pm 8 11 mph 1014.4mb 28f
4:12pm 8 13 mph 1014.4mb 28f
4:06pm 11 15 mph 1014.3mb 28f
3:54pm 8 14 mph 1014.2mb 28f
3:48pm 6 11 mph 1014.1mb 29f
3:42pm 7 13 mph 1014mb 29f
3:36pm 7 14 mph 1013.9mb 29f
3:30pm 9 13 mph 1013.8mb 29f
3:24pm 10 15 mph 1013.8mb 29f
3:18pm 8 15 mph 1013.7mb 29f
3:12pm 10 15 mph 1013.6mb 29f
3:00pm 9 17 mph 1013.6mb 29f
2:48pm 9 20 mph 1013.5mb 29f
2:42pm 11 20 mph 1013.4mb 29f
2:36pm 7 14 mph 1013.4mb 29f
2:30pm 9 17 mph 1013.4mb 29f
2:24pm 13 18 mph 1013.3mb 29f
2:12pm 15 22 mph 1013mb 30f
2:00pm 11 15 mph 1012.9mb 30f
1:54pm 8 17 mph 1012.9mb 30f
1:48pm 14 18 mph 1012.9mb 30f
1:42pm 9 13 mph 1012.8mb 30f
1:36pm 9 13 mph 1012.7mb 30f
1:30pm 8 16 mph 1012.7mb 30f
1:24pm 9 15 mph 1012.7mb 30f
1:12pm 8 14 mph 1012.6mb 31f
1:06pm 11 16 mph 1012.6mb 30f
1:00pm 10 14 mph 1012.7mb 30f
12:54pm 9 17 mph 1012.7mb 31f
12:48pm 14 21 mph 1012.7mb 31f
12:42pm 9 14 mph 1012.6mb 31f
12:36pm 9 13 mph 1012.6mb 31f
12:30pm 8 16 mph 1012.7mb 31f
12:24pm 13 17 mph 1012.7mb 31f
12:18pm 10 15 mph 1012.7mb 31f
12:12pm 9 14 mph 1012.7mb 31f
12:06pm 7 18 mph 1012.6mb 31f
12:00pm 14 18 mph 1012.6mb 31f
11:54am 10 15 mph 1012.5mb 31f
11:48am 8 16 mph 1012.6mb 31f
11:42am 9 11 mph 1012.6mb 31f
11:36am 11 18 mph 1012.5mb 31f
11:30am 9 21 mph 1012.5mb 31f
11:24am 11 20 mph 1012.5mb 31f
11:18am 11 22 mph 1012.5mb -
11:12am 13 22 mph 1012.5mb -
11:06am 13 18 mph 1012.6mb -
11:00am 9 21 mph 1012.5mb 32f
10:54am 10 18 mph 1012.6mb 32f
10:48am 14 18 mph 1012.6mb 31f
10:42am 8 15 mph 1012.6mb 31f
10:36am 13 17 mph 1012.6mb 31f
10:30am 10 17 mph 1012.6mb 31f
10:24am 10 16 mph 1012.7mb 31f
10:18am 7 14 mph 1012.7mb 31f
10:12am 11 16 mph 1012.7mb 31f
10:06am 10 14 mph 1012.7mb 31f
10:00am 7 13 mph 1012.8mb 32f
9:54am 9 16 mph 1012.8mb 31f
9:48am 11 16 mph 1012.8mb 31f
9:42am 7 15 mph 1012.7mb 32f
9:36am 11 18 mph 1012.7mb 31f
9:30am 11 20 mph 1012.6mb 31f
9:24am 11 18 mph 1012.6mb 31f
9:06am 10 14 mph 1012.3mb 32f
9:00am 9 13 mph 1012.2mb 32f
8:54am 8 13 mph 1012.2mb 32f
8:48am 8 13 mph 1012.1mb 32f
8:42am 7 14 mph 1012.1mb 32f
8:36am 8 15 mph 1012mb 32f
8:30am 10 15 mph 1011.9mb 32f
8:24am 8 14 mph 1011.9mb 32f
8:18am 9 13 mph 1011.8mb 32f
8:12am 8 15 mph 1011.7mb 32f
8:06am 10 14 mph 1011.7mb 32f
7:48am 8 11 mph 1011.6mb 32f
7:42am 9 13 mph 1011.5mb 32f
7:36am 8 14 mph 1011.4mb 32f
7:30am 9 14 mph 1011.3mb 32f
7:24am 9 13 mph 1011.3mb 32f
7:18am 7 13 mph 1011.3mb 32f
7:12am 9 13 mph 1011.3mb 32f
7:06am 6 10 mph 1011.2mb 33f
7:00am 9 11 mph 1011.1mb 33f
6:54am 10 14 mph 1011mb 33f
6:48am 9 13 mph 1011mb 33f
6:42am 7 10 mph 1010.9mb 33f
6:36am 8 10 mph 1010.9mb 33f
6:30am 7 13 mph 1010.8mb 33f
6:24am 7 10 mph 1010.7mb 33f
6:18am 6 9 mph 1010.7mb 33f
6:12am 6 11 mph 1010.6mb 33f
6:06am 7 11 mph 1010.6mb 33f
6:00am 7 11 mph 1010.6mb 33f
5:54am 6 9 mph 1010.5mb 33f
5:48am 6 9 mph 1010.4mb 33f
5:42am 8 10 mph 1010.4mb 33f
5:36am 8 13 mph 1010.3mb 33f
5:30am 8 10 mph 1010.3mb -
5:24am 7 11 mph 1010.2mb -
5:18am 7 9 mph 1010.1mb -
5:12am 6 9 mph 1009.9mb 34f
5:06am 5 8 mph 1009.8mb 34f
5:00am 7 9 mph 1009.8mb 34f
4:54am 7 11 mph 1009.8mb 34f
4:48am 8 10 mph 1009.7mb 34f
4:42am 6 11 mph 1009.7mb 34f
4:36am 7 11 mph 1009.6mb 34f
4:30am 9 11 mph 1009.6mb 34f
4:24am 6 8 mph 1009.6mb 34f
4:18am 7 9 mph 1009.5mb 34f
4:12am 7 9 mph 1009.5mb 35f
4:06am 6 8 mph 1009.5mb 35f
4:00am 6 8 mph 1009.5mb 35f
3:54am 6 8 mph 1009.5mb 35f
3:48am 6 8 mph 1009.4mb 35f
3:42am 5 6 mph 1009.4mb 35f
3:36am 5 7 mph 1009.3mb 35f
3:30am 3 7 mph 1009.2mb 35f
3:24am 6 8 mph 1009.2mb 35f
3:12am 7 9 mph 1009.1mb 35f
3:00am 6 11 mph 1009.1mb 36f
2:54am 7 10 mph 1009.1mb 36f
2:48am 6 8 mph 1009.1mb 36f
2:42am 6 8 mph 1009.1mb 36f
2:36am 6 10 mph 1009.1mb 36f
2:30am 5 7 mph 1009.1mb 36f
2:24am 5 7 mph 1009mb 36f
2:12am 5 7 mph 1009mb 36f
2:06am 5 7 mph 1009mb 36f
2:00am 6 7 mph 1008.9mb 36f
1:54am 6 7 mph 1009mb 36f
1:48am 5 6 mph 1008.9mb 36f
1:42am 5 6 mph 1008.9mb 36f
1:36am 3 6 mph 1008.9mb 36f
1:30am 3 6 mph 1008.8mb 36f
1:24am 5 7 mph 1008.7mb 36f
1:18am 3 6 mph 1008.7mb 36f
1:12am 3 6 mph 1008.7mb 36f
1:06am 5 7 mph 1008.6mb 36f
1:00am 5 7 mph 1008.5mb 36f
12:54am 6 8 mph 1008.5mb 36f
12:48am 6 8 mph 1008.5mb 36f
12:42am 6 7 mph 1008.5mb 36f
12:36am 6 8 mph 1008.4mb 36f
12:30am 5 7 mph 1008.4mb 36f
12:24am 6 7 mph 1008.4mb 36f
12:18am 6 7 mph 1008.3mb 36f
12:12am 5 7 mph 1008.2mb 36f
12:06am 5 6 mph 1008.2mb 36f
12:00am 5 6 mph 1008.2mb 37f
Tue 12/16 11:54pm 5 7 mph 1008.2mb 37f
11:48pm 3 5 mph 1008.1mb 37f
11:42pm 3 6 mph 1008.1mb 37f
11:36pm 3 6 mph 1008.1mb 37f
11:30pm 5 6 mph 1008mb 37f
11:24pm 3 6 mph 1008.1mb 37f
11:18pm 3 5 mph 1008.2mb 37f
11:12pm 2 5 mph 1008.3mb 37f
11:06pm 2 5 mph 1008.3mb 37f
11:00pm 3 6 mph 1008.3mb 37f
10:54pm 3 5 mph 1008.3mb 37f
10:48pm 2 5 mph 1008.3mb 37f
10:42pm 3 6 mph 1008.2mb 37f
10:36pm 3 6 mph 1008.1mb 37f
10:30pm 2 5 mph 1008.1mb 37f
10:24pm 2 5 mph 1008.1mb 37f
10:18pm 3 6 mph 1008mb 37f
10:12pm 3 6 mph 1008.1mb 37f
10:06pm 2 5 mph 1008.1mb 37f
10:00pm 3 6 mph 1007.9mb 37f
9:54pm 3 6 mph 1007.9mb 37f
9:48pm 2 5 mph 1007.8mb 38f
9:42pm 3 7 mph 1007.8mb 38f
9:36pm 5 7 mph 1007.7mb 38f
9:30pm 2 5 mph 1007.7mb 38f
9:24pm 3 7 mph 1007.7mb 38f
9:18pm 2 5 mph 1007.7mb 38f
9:12pm 2 5 mph 1007.7mb 38f
9:06pm 5 6 mph 1007.6mb 38f
9:00pm 5 7 mph 1007.5mb 38f
8:54pm 3 6 mph 1007.5mb 38f
8:48pm 3 6 mph 1007.5mb 38f
8:42pm 3 6 mph 1007.5mb 38f
8:36pm 3 6 mph 1007.4mb 38f
8:30pm 2 3 mph 1007.4mb 38f
8:24pm 3 5 mph 1007.4mb 38f
8:18pm 3 5 mph 1007.4mb 38f
8:12pm 5 6 mph 1007.5mb 38f
8:06pm 2 5 mph 1007.4mb 38f
8:00pm 3 5 mph 1007.4mb 38f
7:54pm 3
mph
1007.4mb 38f
7:48pm 3 5 mph 1007.3mb 38f
7:42pm 5
mph
1007.2mb 38f
7:36pm 3 5 mph 1007.2mb 38f
7:30pm 3 5 mph 1007.2mb 38f
7:24pm 3 6 mph 1007.1mb 38f
7:18pm 3 6 mph 1007.2mb 38f
7:12pm 3 5 mph 1007.2mb 38f
7:06pm 3 5 mph 1007.2mb 38f
6:54pm 5 6 mph 1007.2mb 38f
6:48pm 3 5 mph 1007.2mb 38f
6:42pm 5
mph
1007.1mb 38f
6:36pm 3 5 mph 1007.1mb 38f
6:30pm 3 5 mph 1007.1mb 38f
6:24pm 3
mph
1007.1mb 38f
6:18pm 2
mph
1007mb 38f
6:12pm 2 3 mph 1007mb 38f
6:06pm 2 3 mph 1006.9mb 38f
6:00pm 2 3 mph 1006.9mb 38f
5:54pm 2 3 mph 1006.9mb 38f
5:48pm 2 3 mph 1006.9mb 38f
5:42pm 2 3 mph 1006.9mb 38f
5:36pm 3
mph
1006.9mb 38f
5:30pm 2 3 mph 1006.9mb 38f
5:24pm 2 3 mph 1006.9mb 38f
5:18pm 2 3 mph 1006.9mb 38f
5:12pm 2 3 mph 1006.8mb 38f
5:06pm 2 3 mph 1006.7mb 38f
5:00pm 2 3 mph 1006.7mb 38f
4:54pm 2 3 mph 1006.5mb 38f
4:48pm 2 3 mph 1006.5mb 38f
4:42pm 2 3 mph 1006.4mb 38f
4:36pm  -  1 mph 1006.4mb 38f
4:30pm  -  1 mph 1006.3mb 38f
4:24pm  -  2 mph 1006.2mb 38f
4:18pm  -  1 mph 1006.1mb 38f
4:12pm 1 2 mph 1006.2mb 38f
4:06pm 1 2 mph 1006.1mb 38f
4:00pm 1 2 mph 1006.1mb 38f
3:54pm 1 3 mph 1006.1mb 38f
3:48pm 3 5 mph 1006mb 38f
3:42pm 3 5 mph 1005.9mb 38f
3:36pm 2 6 mph 1005.8mb 38f
3:30pm 5 6 mph 1005.8mb 38f
3:24pm 5 7 mph 1005.8mb 38f
3:18pm 5 6 mph 1005.8mb 38f
3:12pm 5 6 mph 1005.7mb 38f
3:06pm 3 6 mph 1005.7mb 38f
3:00pm 2 6 mph 1005.6mb 39f
2:54pm 5
mph
1005.6mb 38f
2:48pm 3 5 mph 1005.5mb 38f
2:42pm 2 3 mph 1005.5mb 38f
2:36pm 3 6 mph 1005.4mb 38f
2:30pm 5 6 mph 1005.4mb 38f
2:24pm 3 6 mph 1005.3mb 39f
2:18pm 2 5 mph 1005.2mb 39f
2:12pm 2 6 mph 1005.2mb 39f
2:06pm 5 7 mph 1005.1mb 38f
2:00pm 6 7 mph 1005.1mb 38f
1:54pm 6 8 mph 1005mb 38f
1:48pm 6 8 mph 1004.9mb 38f
1:42pm 6 8 mph 1004.9mb 38f
1:24pm 7 10 mph 1004.8mb 38f
1:18pm 7 10 mph 1004.8mb 38f
1:12pm 6 9 mph 1004.9mb 38f
1:06pm 7 10 mph 1004.9mb 38f
1:00pm 7 9 mph 1005mb 38f
12:54pm 7 9 mph 1005mb 38f
12:48pm 7 10 mph 1005.1mb 39f
12:42pm 5 9 mph 1005.2mb 39f
12:36pm 7 9 mph 1005.2mb 39f
12:30pm 7 10 mph 1005.2mb 39f
12:24pm 6 9 mph 1005.2mb 39f
12:18pm 6 10 mph 1005.3mb 39f
12:12pm 7 10 mph 1005.3mb 39f
12:06pm 8 11 mph 1005.2mb 39f
12:00pm 7 9 mph 1005.2mb 39f
11:54am 7 10 mph 1005.2mb 39f
11:48am 7 10 mph 1005.2mb 39f
11:42am 7 10 mph 1005.3mb 39f
11:36am 6 10 mph 1005.3mb 39f
11:30am 7 9 mph 1005.4mb 39f
11:24am 6 9 mph 1005.4mb 39f
11:18am 6 10 mph 1005.5mb 39f
11:12am 6 9 mph 1005.6mb 39f
11:06am 8 10 mph 1005.7mb 39f
11:00am 6 8 mph 1005.8mb 39f
10:54am 6 8 mph 1005.8mb 39f
10:48am 6 9 mph 1005.9mb 39f
10:42am 7 9 mph 1005.9mb 39f
10:36am 3 8 mph 1006mb 39f
10:30am 5 8 mph 1006mb 39f
10:24am 5 9 mph 1006.1mb 39f
10:18am 6 10 mph 1006.1mb 39f
10:12am 6 8 mph 1006.2mb 39f
10:06am 7 9 mph 1006.2mb 39f
10:00am 6 8 mph 1006.2mb 39f
9:54am 6 10 mph 1006.2mb 39f
9:48am 6 10 mph 1006.2mb 39f
9:42am 6 9 mph 1006.3mb 39f
9:36am 6 10 mph 1006.3mb 39f
9:30am 6 11 mph 1006.3mb 39f
9:24am 6 9 mph 1006.3mb 40f
9:18am 6 10 mph 1006.3mb 40f
9:12am 6 10 mph 1006.3mb 40f
9:06am 6 10 mph 1006.3mb 40f
9:00am 7 13 mph 1006.3mb 40f
8:54am 7 13 mph 1006.3mb 39f
8:48am 8 14 mph 1006.3mb 39f
8:42am 9 14 mph 1006.3mb 39f
8:36am 8 11 mph 1006.3mb 39f
8:30am 7 13 mph 1006.3mb 39f
8:24am 7 14 mph 1006.3mb 39f
8:18am 8 14 mph 1006.3mb 39f
8:12am 7 13 mph 1006.3mb 39f
8:06am 7 10 mph 1006.3mb 39f
8:00am 7 11 mph 1006.3mb 39f
7:54am 8 14 mph 1006.3mb 39f
7:48am 8 14 mph 1006.2mb 39f
7:42am 10 15 mph 1006.2mb 39f
7:36am 8 14 mph 1006.3mb 39f
7:30am 9 14 mph 1006.4mb 39f
7:24am 9 15 mph 1006.4mb 39f
7:18am 8 14 mph 1006.4mb 39f
7:12am 7 14 mph 1006.3mb 39f
7:06am 7 11 mph 1006.3mb 38f
7:00am 7 13 mph 1006.3mb 39f
6:54am 6 11 mph 1006.4mb 39f
6:48am 7 10 mph 1006.4mb 39f
6:42am 6 10 mph 1006.4mb 39f
6:36am 6 11 mph 1006.4mb 38f
6:30am 6 11 mph 1006.5mb 39f
6:24am 7 10 mph 1006.5mb 39f
6:18am 8 11 mph 1006.5mb 39f
6:12am 9 13 mph 1006.6mb 39f
6:06am 7 13 mph 1006.6mb 39f
6:00am 7 13 mph 1006.6mb 39f
5:54am 7 13 mph 1006.6mb 39f
5:48am 8 14 mph 1006.7mb 39f
5:42am 8 13 mph 1006.7mb 40f
5:36am 7 11 mph 1006.7mb 40f
5:30am 7 11 mph 1006.6mb 40f
5:24am 6 10 mph 1006.6mb 40f
5:18am 6 9 mph 1006.6mb 40f
5:12am 6 8 mph 1006.8mb 40f
5:06am 6 9 mph 1006.8mb 40f
5:00am 6 9 mph 1006.8mb 40f
4:54am 6 8 mph 1006.9mb 40f
4:48am 6 8 mph 1007mb 39f
4:42am 5 8 mph 1007.1mb 39f
4:36am 5 8 mph 1007.1mb 39f
4:30am 5 7 mph 1007.2mb 38f
4:24am 3 6 mph 1007.2mb 38f
4:18am 3 6 mph 1007.2mb 38f
4:12am 3 6 mph 1007.2mb 38f
4:06am 3 6 mph 1007.2mb 38f
4:00am 3 7 mph 1007.3mb 38f
3:54am 3 6 mph 1007.3mb 38f
3:48am 3 6 mph 1007.4mb 38f
3:42am 3 7 mph 1007.4mb 38f
3:30am 5 7 mph 1007.6mb 38f
3:24am 5 7 mph 1007.6mb 38f
3:18am 6 7 mph 1007.7mb 38f
3:12am 6 7 mph 1007.7mb 38f
3:00am 5 9 mph 1007.8mb 38f
2:54am 6 9 mph 1007.9mb 38f
2:48am 6 10 mph 1008mb 39f
2:42am 7 10 mph 1008mb 39f
2:36am 7 9 mph 1008mb 39f
2:30am 6 10 mph 1008.1mb 39f
2:24am 7 10 mph 1008.2mb 38f
2:18am 9 15 mph 1008.3mb 38f
2:12am 13 14 mph 1008.3mb 39f
2:06am 7 10 mph 1008.4mb 39f
2:00am 8 9 mph 1008.3mb 40f
1:54am 5 8 mph 1008.2mb 39f
1:48am 5 7 mph 1008.2mb 40f
1:42am 5 6 mph 1008.4mb 40f
1:36am 3 6 mph 1008.4mb 40f
1:30am 5 7 mph 1008.4mb 40f
1:24am 3 7 mph 1008.4mb 40f
1:18am 5 7 mph 1008.5mb 39f
1:12am 5 7 mph 1008.7mb 39f
1:06am 5 8 mph 1008.7mb 39f
1:00am 7 8 mph 1008.7mb 39f
12:54am 6 8 mph 1008.6mb 39f
12:48am 6 8 mph 1008.6mb 40f
12:42am 5 8 mph 1008.6mb 40f
12:36am 7 10 mph 1008.7mb 40f
12:30am 8 9 mph 1008.7mb 39f
12:24am 6 8 mph 1008.8mb 38f
12:18am 5 9 mph 1008.8mb 39f
12:12am 7 10 mph 1008.9mb 39f
12:06am 6 9 mph 1008.9mb 39f
12:00am 6 8 mph 1008.9mb 39f
Mon 12/15 11:54pm 5 8 mph 1009mb 39f
11:48pm 6 8 mph 1009mb 39f
11:42pm 3 7 mph 1009.1mb 39f
11:36pm 5 7 mph 1009.1mb 39f
11:30pm 6 8 mph 1009.2mb 39f
11:24pm 5 7 mph 1009.2mb 39f
11:18pm 5 8 mph 1009.3mb 38f
11:12pm 5 7 mph 1009.4mb 38f
11:06pm 5 7 mph 1009.5mb 39f
11:00pm 5 7 mph 1009.5mb 39f
10:54pm 3 6 mph 1009.5mb 37f
10:48pm 3 5 mph 1009.5mb 37f
10:42pm 3 5 mph 1009.6mb 37f
10:36pm 2 5 mph 1009.5mb 37f
10:30pm 5 7 mph 1009.5mb 38f
10:24pm 6 9 mph 1009.6mb 37f
10:18pm 2 6 mph 1009.7mb 37f
10:12pm 5 9 mph 1009.8mb 37f
10:06pm 6 9 mph 1009.8mb 37f
10:00pm 5 7 mph 1009.6mb 37f
9:54pm 3 5 mph 1009.6mb 37f
9:48pm 3 6 mph 1009.6mb 37f
9:42pm 3 6 mph 1009.6mb 37f
9:36pm 6 8 mph 1009.6mb 37f
9:30pm 7 10 mph 1009.7mb 37f
9:24pm 7 10 mph 1009.7mb 37f
9:12pm 2 5 mph 1009.7mb 37f
9:06pm 3 5 mph 1009.7mb 37f
9:00pm 2 5 mph 1009.8mb 37f
8:54pm 2 6 mph 1009.8mb 37f
8:48pm 3 6 mph 1009.9mb 37f
8:42pm 5 7 mph 1009.9mb 37f
8:36pm 5 7 mph 1010mb 37f
8:30pm 6 7 mph 1010mb 37f
8:24pm 6 8 mph 1010.1mb 37f
8:18pm 7 9 mph 1010.1mb 37f
8:12pm 8 9 mph 1010.1mb 38f
8:06pm 7 9 mph 1010.2mb 38f
8:00pm 6 7 mph 1010.2mb 38f
7:54pm 3 5 mph 1010.2mb 37f
7:48pm 2 5 mph 1010.3mb 37f
7:42pm 3 6 mph 1010.3mb 37f
7:36pm 3 5 mph 1010.4mb 38f
7:30pm 2 5 mph 1010.4mb 38f
7:24pm 3 6 mph 1010.5mb 38f
7:18pm 5 6 mph 1010.5mb 38f
7:12pm 3 6 mph 1010.6mb 38f
7:06pm 3 5 mph 1010.6mb 39f
7:00pm 2 5 mph 1010.6mb -
6:54pm 3 6 mph 1010.6mb 38f
6:48pm 2 5 mph 1010.6mb 38f
6:42pm 3 6 mph 1010.6mb 38f
6:36pm 5 7 mph 1010.7mb 38f
6:30pm 6 8 mph 1010.6mb 38f
6:24pm 6 8 mph 1010.6mb 38f
6:18pm 7 9 mph 1010.7mb 38f
6:00pm 7 9 mph 1010.7mb 39f
5:54pm 8 9 mph 1010.7mb 39f
5:48pm 8 10 mph 1010.8mb 38f
5:42pm 7 8 mph 1010.7mb 38f
5:36pm 6 8 mph 1010.6mb 38f
5:30pm 6 7 mph 1010.6mb 38f
5:24pm 5 6 mph 1010.5mb 38f
5:18pm 3 5 mph 1010.5mb 38f
5:12pm 3 7 mph 1010.6mb 38f
5:06pm 5 7 mph 1010.6mb 39f
4:54pm 3 6 mph 1010.7mb 40f
4:42pm 3 8 mph 1010.7mb 40f
4:36pm 3 6 mph 1010.7mb 39f
4:30pm 5 7 mph 1010.7mb 40f
4:24pm 3 6 mph 1010.7mb 40f
4:18pm 3 6 mph 1010.7mb 40f
4:12pm 5 7 mph 1010.6mb 40f
4:06pm 5 6 mph 1010.6mb 40f
3:54pm 3 5 mph 1010.7mb 40f
3:48pm 1 2 mph 1010.7mb 40f
3:42pm 2
mph
1010.8mb 40f
3:36pm  -  1 mph 1010.8mb 40f
3:30pm 1 2 mph 1010.9mb 40f
3:24pm 1 2 mph 1010.9mb 40f
3:18pm 2
mph
1010.9mb 40f
3:12pm 2 5 mph 1010.9mb 40f
3:06pm 2 3 mph 1010.9mb 40f
3:00pm 2
mph
1010.9mb 39f
2:54pm 1 2 mph 1011mb 39f
2:48pm 2 3 mph 1010.9mb 39f
2:42pm 2 5 mph 1010.8mb 39f
2:36pm 2 3 mph 1010.8mb 39f
2:30pm 2 3 mph 1010.6mb 39f
2:24pm 2 5 mph 1010.6mb 38f
2:18pm 3 6 mph 1010.6mb 39f
2:12pm 2 3 mph 1010.6mb 39f
2:06pm 2 3 mph 1010.6mb 38f
2:00pm 2 5 mph 1010.7mb 38f
1:54pm 3
mph
1010.7mb 38f
1:48pm 5 7 mph 1010.7mb 39f
1:42pm 5 8 mph 1010.7mb 39f
1:36pm 6 7 mph 1010.7mb 39f
1:30pm 5 7 mph 1010.7mb 39f
1:24pm 7 9 mph 1010.7mb 39f
1:12pm 6 7 mph 1010.7mb 39f
1:06pm 5 7 mph 1010.8mb 39f
1:00pm 5 6 mph 1010.9mb 39f
12:54pm 5 6 mph 1010.9mb 39f
12:48pm 3 8 mph 1010.9mb 40f
12:42pm 6 8 mph 1010.9mb 40f
12:36pm 6 9 mph 1011mb 42f
12:30pm 6 7 mph 1011.1mb 42f
12:24pm 3 6 mph 1011.1mb 42f
12:18pm 2 6 mph 1011.2mb 42f
12:12pm 5 7 mph 1011.2mb 43f
12:06pm 3 6 mph 1011.3mb 42f
12:00pm 5 7 mph 1011.4mb 42f
11:54am 3 6 mph 1011.4mb 42f
11:48am 5 7 mph 1011.5mb 43f
11:42am 5 6 mph 1011.7mb 42f
11:36am 3 6 mph 1011.8mb 42f
11:30am 3 5 mph 1011.9mb 41f
11:24am 3 6 mph 1012mb 41f
11:18am 2 3 mph 1012.1mb 41f
11:12am 2 5 mph 1012.2mb 41f
11:06am 2 5 mph 1012.4mb 40f
11:00am 3 5 mph 1012.4mb 39f
10:54am 1
mph
1012.7mb 39f
10:48am  -  2 mph 1012.9mb 39f
10:42am 2 3 mph 1012.9mb 38f
10:36am 3
mph
1012.9mb 38f
10:30am 3
mph
1013mb 38f
10:24am 1 2 mph 1013.1mb 38f
10:18am 1 2 mph 1013.1mb 38f
10:12am 3 6 mph 1013.1mb 37f
10:06am 5 7 mph 1013.1mb 37f
10:00am 5 6 mph 1013.2mb 37f
9:54am 5 6 mph 1013.3mb 37f
9:48am 3 6 mph 1013.4mb 37f
9:42am 3 6 mph 1013.5mb 37f
9:36am 3 6 mph 1013.6mb 37f
9:30am 3 6 mph 1013.6mb 37f
9:24am 3 5 mph 1013.7mb 37f
9:18am 3 5 mph 1013.8mb 37f
9:12am 3 5 mph 1013.9mb 37f
9:06am 2 5 mph 1013.9mb 37f
9:00am 2 5 mph 1013.9mb 37f
8:54am 3 5 mph 1014mb 37f
8:48am 3 5 mph 1014mb 37f
8:42am 3 5 mph 1014.1mb 37f
8:36am 3 5 mph 1014mb 37f
8:30am 2 3 mph 1014.1mb 37f
8:24am 2 3 mph 1014.2mb 37f
8:18am 2 3 mph 1014.2mb 37f
8:12am  -  2 mph 1014.2mb 37f
8:06am 2
mph
1014.2mb 37f
7:54am 3 5 mph 1014.2mb 37f
7:48am 2 3 mph 1014.1mb 38f
7:42am 2 3 mph 1014.1mb 38f
7:36am 1 3 mph 1014.1mb 38f
7:30am 2 5 mph 1014.1mb 38f
7:24am 3 7 mph 1014.1mb 37f
7:18am 2 5 mph 1014.1mb 38f
7:12am 2 5 mph 1014.2mb 38f
7:06am 2 5 mph 1014.3mb 38f
7:00am 2 6 mph 1014.3mb 38f
6:54am 2 5 mph 1014.3mb 38f
6:48am 3 5 mph 1014.3mb 38f
6:42am 5 6 mph 1014.2mb 38f
6:36am 3 6 mph 1014.3mb 38f
6:30am 5 6 mph 1014.3mb 38f
6:24am 2 3 mph 1014.3mb 38f
6:18am 2
mph
1014.4mb 38f
6:12am 2
mph
1014.4mb 38f
6:06am  -  2 mph 1014.5mb 38f
6:00am  -  2 mph 1014.4mb 38f
5:54am 2
mph
1014.3mb 38f
5:48am 2 3 mph 1014.3mb 38f
5:42am 2 5 mph 1014.3mb 37f
5:36am 1 3 mph 1014.3mb 37f
5:30am 2 5 mph 1014.2mb 37f
5:24am 2 6 mph 1014.3mb 37f
5:18am 5 6 mph 1014.2mb 37f
5:12am 3 5 mph 1014.3mb 37f
5:06am 5 8 mph 1014.3mb 37f
5:00am 6 7 mph 1014.4mb 37f
4:54am 6 8 mph 1014.3mb 37f
4:48am 7 10 mph 1014.3mb 37f
4:42am 7 9 mph 1014.4mb 37f
4:36am 7 9 mph 1014.4mb 37f
4:30am 7 9 mph 1014.5mb 37f
4:24am 7 10 mph 1014.5mb 37f
4:18am 7 9 mph 1014.5mb 37f
4:12am 7 9 mph 1014.5mb 37f
4:06am 7 9 mph 1014.7mb 37f
4:00am 7 10 mph 1014.7mb 37f
3:54am 7 9 mph 1014.6mb 37f
3:48am 8 9 mph 1014.7mb 37f
3:42am 6 7 mph 1014.8mb 37f
3:36am 6 8 mph 1014.9mb 37f
3:30am 3 7 mph 1014.9mb 37f
3:24am 6 8 mph 1015mb 37f
3:18am 6 8 mph 1015.1mb 37f
3:12am 6 7 mph 1015.1mb 37f
3:06am 6 8 mph 1015.2mb 37f
3:00am 7 8 mph 1015.1mb 37f
2:54am 3 6 mph 1015.1mb 37f
2:48am 3 5 mph 1015.3mb 37f
2:42am 2 5 mph 1015.4mb 37f
2:36am 2 5 mph 1015.5mb 37f
2:30am 3 6 mph 1015.4mb 37f
2:24am 3 5 mph 1015.5mb 37f
2:18am 5 6 mph 1015.5mb 37f
2:12am 5 7 mph 1015.5mb 37f
2:06am 5 8 mph 1015.5mb 37f
2:00am 3 8 mph 1015.6mb 37f
1:54am 6 7 mph 1015.6mb 37f
1:48am 3 6 mph 1015.6mb 37f
1:42am 3 7 mph 1015.6mb 37f
1:36am 3 7 mph 1015.6mb 37f
1:30am 6 9 mph 1015.5mb 37f
1:24am 5 8 mph 1015.5mb 37f
1:18am 5 8 mph 1015.5mb 37f
1:12am 5 8 mph 1015.6mb 38f
1:06am 5 6 mph 1015.6mb 38f
1:00am 3 8 mph 1015.6mb 37f
12:54am 5 9 mph 1015.6mb 37f
12:48am 6 8 mph 1015.6mb 37f
12:42am 5 8 mph 1015.7mb 37f
12:36am 5 7 mph 1015.7mb 37f
12:30am 5 7 mph 1015.6mb 37f
12:24am 5 8 mph 1015.7mb 37f
12:18am 7 9 mph 1015.6mb 37f
12:12am 8 9 mph 1015.7mb 36f
12:06am 6
mph
1015.8mb 37f
12:00am 6 7 mph 1015.9mb 37f
Sun 12/14 11:54pm 3 6 mph 1015.9mb 37f
11:48pm 3 6 mph 1015.9mb 36f
11:42pm 3 5 mph 1015.9mb 36f
11:36pm 2 3 mph 1016mb 36f
11:30pm 2 5 mph 1016.1mb 36f
11:24pm 2 3 mph 1016.2mb 36f
11:18pm 2 6 mph 1016.2mb 36f
11:12pm 3 6 mph 1016.2mb 37f
11:06pm 3 6 mph 1016.2mb 37f
11:00pm 3 6 mph 1016.2mb 37f
10:54pm 2 3 mph 1016.3mb 36f
10:48pm 2 3 mph 1016.3mb 36f
10:42pm 3 5 mph 1016.4mb 37f
10:36pm 3 8 mph 1016.3mb 37f
10:30pm 6 8 mph 1016.3mb 38f
10:24pm 5 7 mph 1016.3mb 38f
10:18pm 5 9 mph 1016.3mb 38f
10:06pm 2 3 mph 1016.5mb 36f
10:00pm 2 7 mph 1016.6mb 37f
9:54pm 2 7 mph 1016.5mb 37f
9:48pm 6 8 mph 1016.4mb 37f
9:42pm 5 6 mph 1016.4mb 37f
9:36pm 5 7 mph 1016.3mb 37f
9:30pm 3 6 mph 1016.5mb 37f
9:24pm 5 6 mph 1016.5mb 37f
9:18pm 3 6 mph 1016.5mb 37f
9:12pm 2 3 mph 1016.5mb 36f
9:06pm 2 3 mph 1016.4mb 36f
9:00pm 2 3 mph 1016.5mb 36f
8:54pm 2 5 mph 1016.5mb 36f
8:48pm 2 6 mph 1016.5mb 37f
8:42pm 5 6 mph 1016.4mb 37f
8:36pm 5 7 mph 1016.3mb 37f
8:30pm 5 6 mph 1016.4mb 37f
8:24pm 3 5 mph 1016.6mb 36f
8:18pm 2 3 mph 1016.6mb 37f
8:12pm 2 5 mph 1016.6mb 37f
8:06pm 2 3 mph 1016.7mb 36f
8:00pm 2 3 mph 1016.7mb 36f
7:54pm 3
mph
1016.8mb 36f
7:48pm 2 3 mph 1016.8mb 37f
7:42pm 2 3 mph 1016.8mb 37f
7:36pm 2 3 mph 1016.7mb 37f
7:30pm 1 3 mph 1016.7mb 37f
7:24pm 2 3 mph 1016.7mb 37f
7:18pm 2
mph
1016.8mb 37f
7:12pm 2 3 mph 1016.9mb 37f
7:06pm 1 3 mph 1016.8mb 37f
7:00pm 2 3 mph 1016.8mb 37f
6:54pm 2 3 mph 1016.7mb 37f
6:48pm 2 3 mph 1016.8mb 38f
6:42pm 2 7 mph 1016.7mb 38f
6:36pm 2 5 mph 1016.7mb 37f
6:30pm 2 3 mph 1016.6mb 37f
6:24pm 2 3 mph 1016.6mb 37f
6:18pm 1 2 mph 1016.6mb 37f
6:12pm 2 3 mph 1016.6mb 37f
6:06pm 1 2 mph 1016.7mb 37f
6:00pm 1 3 mph 1016.7mb 36f
5:54pm 1 2 mph 1016.5mb 36f
5:48pm 2
mph
1016.6mb 36f
5:42pm 2
mph
1016.6mb 36f
5:36pm 2
mph
1016.6mb 37f
5:30pm 1 3 mph 1016.5mb 37f
5:24pm 2 3 mph 1016.4mb 37f
5:18pm 2 3 mph 1016.5mb 37f
5:12pm 2 6 mph 1016.6mb 37f
5:06pm 2 5 mph 1016.6mb 37f
5:00pm 5 6 mph 1016.5mb 37f
4:54pm 3 5 mph 1016.6mb 37f
4:48pm 2 5 mph 1016.5mb 37f
4:42pm 2 3 mph 1016.5mb 37f
4:36pm 3 5 mph 1016.4mb 37f
4:30pm 5 7 mph 1016.4mb 37f
4:24pm 3 6 mph 1016.3mb 37f
4:18pm 3 6 mph 1016.2mb 37f
4:12pm 3 5 mph 1016mb 37f
4:06pm 2 3 mph 1015.9mb 37f
4:00pm 3 5 mph 1015.7mb 37f
3:54pm 3 5 mph 1015.8mb 38f
3:48pm 2 5 mph 1015.7mb 39f
3:42pm 3 5 mph 1015.7mb 38f
3:36pm 3 5 mph 1015.7mb 38f
3:30pm 3 5 mph 1015.6mb 39f
3:24pm 2 5 mph 1015.6mb 40f
3:18pm 3 5 mph 1015.5mb 39f
3:12pm 2 3 mph 1015.6mb 38f
3:06pm 1 3 mph 1015.6mb 38f
3:00pm 2 5 mph 1015.5mb 37f
2:54pm 3
mph
1015.5mb 37f
2:48pm 2
mph
1015.5mb 38f
2:42pm 2
mph
1015.5mb 39f
2:36pm 1 2 mph 1015.5mb 42f
2:30pm 1 2 mph 1015.4mb 42f
2:24pm 2
mph
1015.5mb 42f
2:18pm 2 3 mph 1015.5mb 42f
2:12pm 2 3 mph 1015.5mb 42f
2:06pm 2 3 mph 1015.4mb 41f
2:00pm 3
mph
1015.4mb 41f
1:54pm 2 3 mph 1015.3mb 41f
1:48pm 2
mph
1015.3mb 41f
1:42pm 2 5 mph 1015.3mb 41f
1:36pm 2 3 mph 1015.2mb 41f
1:30pm 2 3 mph 1015.2mb 41f
1:24pm 2 3 mph 1015.2mb 41f
1:18pm 2 3 mph 1015.1mb 41f
1:12pm 2 3 mph 1015.1mb 41f
1:06pm 2 3 mph 1015.2mb 41f
1:00pm 3 6 mph 1015.1mb 41f
12:54pm 3 5 mph 1015.1mb 40f
12:48pm 3 8 mph 1015.2mb 40f
12:42pm 6 8 mph 1015.2mb 40f
12:36pm 6 9 mph 1015.2mb 40f
12:30pm 6 10 mph 1015.3mb 40f
12:24pm 6 8 mph 1015.3mb 40f
12:18pm 7 9 mph 1015.2mb 40f
12:12pm 6 9 mph 1015.3mb 40f
12:06pm 5 9 mph 1015.3mb 40f
12:00pm 5 7 mph 1015.3mb 40f
11:54am 5 7 mph 1015.3mb 40f
11:48am 6 8 mph 1015.3mb 40f
11:42am 5 7 mph 1015.4mb 40f
11:36am 5 7 mph 1015.4mb 39f
11:30am 6 11 mph 1015.4mb 39f
11:24am 6 9 mph 1015.4mb 39f
11:18am 8 9 mph 1015.4mb 39f
11:12am 7 10 mph 1015.4mb 39f
11:06am 7 10 mph 1015.5mb 39f
11:00am 7 11 mph 1015.4mb 39f
10:54am 6 8 mph 1015.6mb 38f
10:48am 6 9 mph 1015.7mb 38f
10:42am 5 7 mph 1015.9mb 38f
10:36am 5 7 mph 1016mb 38f
10:30am 6 8 mph 1016.1mb 38f
10:24am 5 7 mph 1016.2mb 38f
10:18am 5 7 mph 1016.3mb 38f
10:12am 5 10 mph 1016.3mb 38f
10:06am 6 8 mph 1016.3mb 38f
10:00am 6 7 mph 1016.3mb 37f
9:54am 5 8 mph 1016.3mb 37f
9:48am 6 8 mph 1016.3mb 37f
9:42am 6 8 mph 1016.4mb 37f
9:36am 6 9 mph 1016.4mb 37f
9:30am 6 8 mph 1016.4mb 37f
9:24am 6 9 mph 1016.4mb 37f
9:18am 6 7 mph 1016.4mb 37f
9:12am 6 8 mph 1016.4mb 37f
9:06am 6 8 mph 1016.3mb 37f